createdAt,value
2022-08-12T00:02:02.691Z,68.90
2022-08-12T00:04:23.937Z,69.40
2022-08-12T00:06:50.374Z,69.00
2022-08-12T00:09:16.843Z,69.30
2022-08-12T00:11:43.306Z,69.00
2022-08-12T00:14:09.767Z,69.10
2022-08-12T00:16:36.196Z,69.00
2022-08-12T00:19:02.672Z,68.80
2022-08-12T00:21:29.119Z,69.00
2022-08-12T00:23:55.575Z,69.40
2022-08-12T00:26:24.552Z,69.00
2022-08-12T00:28:51.184Z,69.00
2022-08-12T00:31:20.653Z,69.10
2022-08-12T00:33:51.646Z,69.00
2022-08-12T00:36:34.840Z,69.50
2022-08-12T00:39:03.020Z,69.10
2022-08-12T00:41:29.485Z,69.00
2022-08-12T00:43:56.093Z,69.10
2022-08-12T00:46:22.832Z,69.10
2022-08-12T00:48:49.344Z,69.20
2022-08-12T00:51:15.798Z,69.20
2022-08-12T00:53:42.749Z,69.10
2022-08-12T00:56:09.193Z,69.40
2022-08-12T00:58:35.626Z,69.10
2022-08-12T01:01:02.113Z,69.10
2022-08-12T01:03:28.595Z,69.10
2022-08-12T01:05:55.190Z,69.20
2022-08-12T01:08:21.638Z,69.10
2022-08-12T01:10:48.107Z,69.10
2022-08-12T01:13:19.226Z,69.10
2022-08-12T01:15:46.586Z,69.10
2022-08-12T01:18:13.019Z,69.10
2022-08-12T01:20:39.481Z,69.30
2022-08-12T01:23:05.954Z,69.20
2022-08-12T01:25:32.410Z,71.20
2022-08-12T01:27:58.849Z,69.60
2022-08-12T01:30:25.324Z,69.10
2022-08-12T01:32:51.757Z,69.40
2022-08-12T01:35:18.225Z,69.60
2022-08-12T01:37:44.683Z,69.30
2022-08-12T01:40:33.231Z,69.40
2022-08-12T01:42:57.616Z,70.40
2022-08-12T01:45:24.066Z,69.20
2022-08-12T01:47:50.518Z,69.10
2022-08-12T01:50:16.962Z,69.10
2022-08-12T01:52:43.400Z,69.20
2022-08-12T01:55:09.862Z,69.30
2022-08-12T01:57:57.852Z,69.10
2022-08-12T02:00:22.719Z,69.30
2022-08-12T02:03:02.580Z,69.30
2022-08-12T02:05:29.064Z,69.10
2022-08-12T02:07:59.649Z,69.20
2022-08-12T02:10:50.720Z,69.10
2022-08-12T02:13:12.589Z,69.20
2022-08-12T02:15:39.082Z,69.10
2022-08-12T02:18:05.547Z,69.10
2022-08-12T02:20:35.338Z,69.50
2022-08-12T02:23:18.662Z,69.20
2022-08-12T02:25:45.127Z,70.00
2022-08-12T02:28:11.593Z,69.20
2022-08-12T02:30:41.215Z,69.20
2022-08-12T02:33:10.779Z,69.30
2022-08-12T02:35:37.224Z,69.10
2022-08-12T02:38:03.784Z,69.40
2022-08-12T02:40:30.266Z,69.20
2022-08-12T02:42:56.709Z,69.50
2022-08-12T02:45:23.204Z,69.40
2022-08-12T02:47:55.859Z,69.80
2022-08-12T02:50:26.888Z,69.40
2022-08-12T02:52:53.340Z,69.60
2022-08-12T02:55:28.658Z,69.50
2022-08-12T02:58:06.747Z,69.30
2022-08-12T03:00:35.650Z,70.50
2022-08-12T03:03:02.132Z,69.50
2022-08-12T03:05:28.608Z,69.70
2022-08-12T03:07:59.151Z,69.10
2022-08-12T03:10:36.932Z,69.40
2022-08-12T03:13:03.944Z,69.30
2022-08-12T03:15:30.425Z,69.20
2022-08-12T03:18:24.542Z,69.60
2022-08-12T03:20:43.413Z,69.20
2022-08-12T03:23:09.867Z,69.20
2022-08-12T03:25:44.081Z,69.20
2022-08-12T03:28:10.555Z,69.30
2022-08-12T03:30:54.761Z,69.40
2022-08-12T03:33:23.049Z,69.20
2022-08-12T03:35:49.512Z,69.40
2022-08-12T03:38:16.027Z,69.30
2022-08-12T03:40:42.557Z,69.30
2022-08-12T03:43:09.052Z,69.30
2022-08-12T03:45:51.509Z,69.40
2022-08-12T03:48:19.518Z,69.30
2022-08-12T03:50:46.057Z,69.40
2022-08-12T03:53:12.506Z,69.50
2022-08-12T03:55:38.962Z,69.20
2022-08-12T03:58:05.397Z,69.20
2022-08-12T04:00:31.872Z,69.30
2022-08-12T04:02:58.364Z,69.10
2022-08-12T04:05:24.843Z,69.20
2022-08-12T04:08:11.297Z,69.40
2022-08-12T04:10:37.728Z,70.10
2022-08-12T04:13:04.206Z,69.20
2022-08-12T04:15:30.678Z,70.20
2022-08-12T04:18:06.876Z,69.20
2022-08-12T04:20:34.411Z,69.40
2022-08-12T04:23:00.879Z,69.50
2022-08-12T04:25:27.341Z,69.90
2022-08-12T04:27:53.789Z,69.40
2022-08-12T04:30:32.653Z,69.20
2022-08-12T04:32:59.971Z,69.50
2022-08-12T04:35:26.415Z,69.20
2022-08-12T04:37:59.813Z,69.40
2022-08-12T04:40:28.476Z,69.10
2022-08-12T04:42:55.316Z,69.10
2022-08-12T04:45:22.434Z,69.40
2022-08-12T04:47:49.244Z,69.10
2022-08-12T04:50:34.935Z,69.10
2022-08-12T04:53:02.161Z,69.10
2022-08-12T04:55:28.610Z,69.80
2022-08-12T04:57:55.041Z,69.10
2022-08-12T05:00:21.496Z,69.10
2022-08-12T05:02:48.222Z,69.10
2022-08-12T05:05:14.712Z,69.30
2022-08-12T05:07:54.546Z,69.30
2022-08-12T05:10:21.634Z,69.20
2022-08-12T05:13:00.577Z,69.10
2022-08-12T05:15:29.214Z,69.20
2022-08-12T05:17:56.196Z,69.70
2022-08-12T05:20:26.388Z,69.30
2022-08-12T05:22:57.084Z,69.40
2022-08-12T05:25:24.662Z,69.30
2022-08-12T05:27:55.571Z,69.10
2022-08-12T05:30:25.729Z,69.40
2022-08-12T05:32:53.791Z,69.30
2022-08-12T05:35:21.734Z,69.30
2022-08-12T05:37:49.048Z,69.20
2022-08-12T05:40:15.508Z,69.20
2022-08-12T05:42:42.146Z,69.30
2022-08-12T05:45:08.933Z,70.30
2022-08-12T05:47:53.092Z,69.30
2022-08-12T05:50:20.665Z,69.70
2022-08-12T05:52:48.147Z,69.70
2022-08-12T05:55:15.030Z,70.70
2022-08-12T05:57:41.493Z,69.40
2022-08-12T06:00:07.980Z,69.30
2022-08-12T06:02:34.510Z,69.60
2022-08-12T06:05:01.020Z,69.60
2022-08-12T06:08:00.076Z,69.30
2022-08-12T06:10:14.034Z,70.30
2022-08-12T06:12:40.746Z,69.30
2022-08-12T06:15:07.288Z,69.20
2022-08-12T06:17:33.756Z,69.20
2022-08-12T06:20:28.418Z,69.30
2022-08-12T06:22:46.627Z,69.20
2022-08-12T06:25:17.520Z,69.20
2022-08-12T06:28:06.407Z,69.30
2022-08-12T06:30:37.985Z,69.40
2022-08-12T06:33:20.951Z,69.20
2022-08-12T06:35:49.901Z,69.30
2022-08-12T06:38:16.789Z,69.30
2022-08-12T06:40:43.259Z,69.20
2022-08-12T06:43:09.728Z,69.20
2022-08-12T06:45:46.283Z,69.10
2022-08-12T06:48:13.432Z,69.40
2022-08-12T06:50:40.287Z,69.20
2022-08-12T06:53:06.827Z,69.40
2022-08-12T06:55:33.268Z,69.40
2022-08-12T06:58:08.150Z,69.40
2022-08-12T07:00:36.768Z,69.20
2022-08-12T07:03:22.557Z,69.30
2022-08-12T07:05:50.894Z,69.20
2022-08-12T07:08:17.568Z,69.10
2022-08-12T07:10:44.027Z,69.20
2022-08-12T07:13:10.483Z,69.20
2022-08-12T07:15:36.948Z,69.20
2022-08-12T07:18:03.421Z,69.20
2022-08-12T07:20:51.269Z,69.10
2022-08-12T07:23:16.444Z,69.10
2022-08-12T07:25:42.900Z,69.10
2022-08-12T07:28:16.817Z,67.90
2022-08-12T07:30:43.725Z,69.60
2022-08-12T07:33:10.206Z,69.10
2022-08-12T07:35:36.656Z,69.40
2022-08-12T07:38:03.127Z,69.00
2022-08-12T07:40:29.625Z,69.20
2022-08-12T07:42:56.055Z,69.00
2022-08-12T07:45:22.508Z,69.00
2022-08-12T07:47:48.966Z,69.20
2022-08-12T07:50:17.848Z,69.60
2022-08-12T07:52:47.992Z,69.40
2022-08-12T07:55:14.449Z,69.80
2022-08-12T07:57:40.881Z,69.30
2022-08-12T08:00:07.351Z,69.50
2022-08-12T08:02:33.936Z,69.80
2022-08-12T08:05:00.544Z,69.70
2022-08-12T08:07:27.008Z,69.60
2022-08-12T08:09:59.248Z,69.30
2022-08-12T08:12:26.064Z,69.30
2022-08-12T08:14:52.534Z,69.90
2022-08-12T08:17:19.009Z,69.30
2022-08-12T08:20:02.044Z,70.10
2022-08-12T08:22:41.416Z,69.50
2022-08-12T08:25:34.569Z,69.40
2022-08-12T08:27:55.081Z,68.30
2022-08-12T08:30:21.578Z,69.10
2022-08-12T08:32:48.049Z,69.30
2022-08-12T08:35:14.507Z,69.40
2022-08-12T08:37:41.155Z,69.20
2022-08-12T08:40:07.875Z,69.20
2022-08-12T08:42:34.322Z,69.20
2022-08-12T08:45:00.768Z,69.30
2022-08-12T08:47:27.234Z,69.20
2022-08-12T08:49:53.695Z,69.30
2022-08-12T08:52:45.500Z,69.40
2022-08-12T08:55:06.676Z,69.30
2022-08-12T08:57:43.563Z,69.30
2022-08-12T09:00:10.970Z,69.30
2022-08-12T09:02:42.332Z,69.20
2022-08-12T09:05:25.512Z,69.10
2022-08-12T09:08:11.944Z,69.30
2022-08-12T09:10:38.783Z,70.10
2022-08-12T09:13:23.167Z,69.20
2022-08-12T09:18:41.874Z,69.30
2022-08-12T09:21:08.327Z,69.20
2022-08-12T09:23:58.791Z,69.20
2022-08-12T09:26:21.836Z,69.40
2022-08-12T09:28:54.944Z,69.90
2022-08-12T09:32:07.526Z,69.20
2022-08-12T09:34:28.033Z,69.80
2022-08-12T09:37:00.585Z,69.30
2022-08-12T09:40:00.663Z,69.00
2022-08-12T09:42:33.883Z,69.20
2022-08-12T09:45:17.801Z,69.10
2022-08-12T09:47:45.975Z,69.00
2022-08-12T09:50:25.825Z,69.10
2022-08-12T09:52:54.396Z,69.00
2022-08-12T09:56:05.674Z,69.10
2022-08-12T09:58:55.760Z,69.00
2022-08-12T10:00:56.263Z,68.90
2022-08-12T10:03:32.174Z,68.90
2022-08-12T10:06:27.271Z,68.90
2022-08-12T10:08:49.666Z,69.00
2022-08-12T10:11:20.254Z,68.80
2022-08-12T10:13:47.259Z,68.90
2022-08-12T10:16:21.996Z,68.80
2022-08-12T10:18:51.651Z,69.00
2022-08-12T10:21:18.893Z,69.10
2022-08-12T10:23:45.979Z,69.20
2022-08-12T10:26:36.558Z,69.20
2022-08-12T10:29:01.731Z,69.00
2022-08-12T10:31:29.519Z,68.90
2022-08-12T10:34:16.037Z,68.80
2022-08-12T10:36:52.848Z,68.90
2022-08-12T10:39:44.287Z,68.80
2022-08-12T10:42:05.820Z,68.70
2022-08-12T10:44:32.342Z,68.80
2022-08-12T10:47:01.616Z,68.70
2022-08-12T10:50:06.896Z,69.00
2022-08-12T10:52:37.779Z,68.90
2022-08-12T10:55:06.784Z,68.80
2022-08-12T10:58:13.190Z,68.80
2022-08-12T11:00:31.207Z,68.90
2022-08-12T11:04:25.901Z,68.80
2022-08-12T11:07:06.103Z,68.80
2022-08-12T11:08:42.169Z,68.80
2022-08-12T11:11:13.796Z,68.80
2022-08-12T11:13:46.737Z,68.80
2022-08-12T11:16:21.666Z,68.80
2022-08-12T11:18:54.959Z,69.00
2022-08-12T11:21:22.439Z,68.90
2022-08-12T11:24:08.863Z,68.80
2022-08-12T11:29:26.752Z,68.80
2022-08-12T11:31:58.852Z,68.90
2022-08-12T11:34:53.584Z,68.90
2022-08-12T11:37:25.782Z,68.90
2022-08-12T11:42:33.264Z,69.60
2022-08-12T11:44:59.745Z,68.80
2022-08-12T11:47:26.174Z,68.80
2022-08-12T11:49:52.642Z,68.90
2022-08-12T11:53:56.387Z,68.80
2022-08-12T11:55:05.515Z,68.90
2022-08-12T11:58:18.384Z,68.70
2022-08-12T12:03:04.899Z,68.80
2022-08-12T12:05:41.675Z,68.80
2022-08-12T12:08:37.669Z,68.80
2022-08-12T12:10:59.366Z,69.00
2022-08-12T12:14:07.783Z,68.90
2022-08-12T12:16:12.397Z,68.90
2022-08-12T12:18:38.833Z,68.90
2022-08-12T12:21:05.541Z,68.90
2022-08-12T12:23:36.349Z,68.80
2022-08-12T12:26:08.273Z,69.60
2022-08-12T12:28:37.753Z,68.80
2022-08-12T12:31:04.863Z,69.60
2022-08-12T12:33:56.746Z,68.90
2022-08-12T12:36:29.802Z,68.90
2022-08-12T12:38:57.147Z,68.80
2022-08-12T12:42:40.664Z,68.80
2022-08-12T12:44:13.494Z,68.90
2022-08-12T12:46:52.010Z,68.80
2022-08-12T12:49:21.285Z,68.90
2022-08-12T12:52:18.356Z,68.90
2022-08-12T12:54:39.397Z,68.80
2022-08-12T12:57:06.736Z,68.80
2022-08-12T12:59:57.004Z,68.80
2022-08-12T13:02:31.493Z,68.90
2022-08-12T13:04:58.437Z,68.70
2022-08-12T13:07:54.160Z,68.80
2022-08-12T13:10:11.354Z,68.80
2022-08-12T13:12:39.954Z,68.80
2022-08-12T13:15:06.596Z,68.80
2022-08-12T13:18:00.840Z,68.80
2022-08-12T13:20:37.126Z,68.80
2022-08-12T13:23:07.136Z,68.70
2022-08-12T13:25:51.482Z,68.70
2022-08-12T13:28:19.369Z,68.70
2022-08-12T13:30:48.369Z,69.20
2022-08-12T13:33:18.481Z,68.60
2022-08-12T13:36:05.091Z,68.70
2022-08-12T13:38:34.836Z,68.70
2022-08-12T13:41:01.896Z,68.70
2022-08-12T13:43:41.253Z,68.70
2022-08-12T13:46:08.236Z,68.70
2022-08-12T13:48:38.910Z,68.70
2022-08-12T13:51:11.322Z,68.70
2022-08-12T13:53:40.288Z,68.80
2022-08-12T13:56:24.215Z,68.70
2022-08-12T13:58:52.538Z,68.70
2022-08-12T14:01:19.298Z,68.40
2022-08-12T14:03:51.383Z,68.70
2022-08-12T14:06:18.307Z,68.60
2022-08-12T14:08:45.160Z,69.10
2022-08-12T14:11:16.512Z,69.00
2022-08-12T14:14:04.123Z,69.30
2022-08-12T14:16:37.577Z,69.40
2022-08-12T14:19:22.790Z,68.70
2022-08-12T14:21:59.124Z,68.30
2022-08-12T14:24:27.181Z,68.70
2022-08-12T14:26:57.148Z,68.50
2022-08-12T14:29:56.233Z,68.90
2022-08-12T14:32:16.823Z,68.00
2022-08-12T14:34:44.131Z,68.10
2022-08-12T14:37:12.817Z,67.80
2022-08-12T14:39:39.785Z,68.00
2022-08-12T14:42:06.291Z,68.10
2022-08-12T14:44:59.978Z,67.90
2022-08-12T14:47:19.508Z,67.80
2022-08-12T14:50:34.027Z,68.00
2022-08-12T14:53:13.391Z,67.90
2022-08-12T14:58:06.926Z,67.70
2022-08-12T15:00:33.552Z,67.70
2022-08-12T15:03:01.355Z,67.60
2022-08-12T15:06:06.041Z,67.60
2022-08-12T15:08:14.221Z,67.50
2022-08-12T15:10:53.968Z,67.50
2022-08-12T15:13:20.640Z,67.40
2022-08-12T15:15:47.776Z,67.50
2022-08-12T15:18:14.216Z,67.70
2022-08-12T15:20:40.679Z,67.50
2022-08-12T15:23:18.047Z,67.50
2022-08-12T15:25:47.821Z,67.50
2022-08-12T15:28:21.208Z,67.50
2022-08-12T15:30:48.061Z,67.00
2022-08-12T15:33:18.748Z,67.70
2022-08-12T15:35:52.173Z,67.50
2022-08-12T15:38:21.011Z,67.50
2022-08-12T15:40:48.439Z,67.50
2022-08-12T15:43:15.176Z,68.20
2022-08-12T15:46:01.609Z,67.60
2022-08-12T15:48:30.463Z,67.60
2022-08-12T15:50:57.047Z,67.70
2022-08-12T15:53:23.586Z,67.60
2022-08-12T15:55:53.565Z,67.50
2022-08-12T15:58:27.121Z,67.50
2022-08-12T16:00:53.683Z,67.60
2022-08-12T16:03:25.795Z,67.50
2022-08-12T16:06:12.414Z,67.70
2022-08-12T16:08:38.758Z,67.60
2022-08-12T16:11:07.284Z,67.60
2022-08-12T16:13:44.198Z,67.60
2022-08-12T16:16:22.463Z,67.50
2022-08-12T16:18:49.797Z,67.70
2022-08-12T16:21:52.844Z,67.60
2022-08-12T16:24:02.665Z,67.60
2022-08-12T16:26:32.490Z,67.70
2022-08-12T16:29:15.519Z,67.60
2022-08-12T16:31:42.760Z,67.50
2022-08-12T16:34:10.672Z,67.60
2022-08-12T16:36:37.414Z,67.50
2022-08-12T16:39:05.643Z,67.50
2022-08-12T16:41:38.071Z,67.70
2022-08-12T16:44:06.676Z,67.60
2022-08-12T16:46:35.026Z,67.80
2022-08-12T16:49:04.263Z,66.90
2022-08-12T16:51:40.469Z,68.50
2022-08-12T16:54:12.756Z,68.60
2022-08-12T16:56:54.750Z,67.60
2022-08-12T16:59:24.108Z,67.70
2022-08-12T17:01:51.698Z,67.90
2022-08-12T17:04:18.480Z,67.60
2022-08-12T17:06:45.028Z,67.70
2022-08-12T17:09:17.022Z,67.90
2022-08-12T17:11:44.579Z,67.80
2022-08-12T17:14:11.056Z,67.80
2022-08-12T17:16:38.322Z,67.90
2022-08-12T17:19:09.233Z,68.00
2022-08-12T17:22:01.198Z,68.20
2022-08-12T17:24:30.513Z,68.10
2022-08-12T17:26:57.284Z,68.20
2022-08-12T17:30:01.355Z,68.00
2022-08-12T17:32:11.493Z,68.20
2022-08-12T17:34:38.656Z,68.00
2022-08-12T17:37:05.627Z,68.20
2022-08-12T17:40:15.016Z,68.10
2022-08-12T17:42:32.816Z,68.30
2022-08-12T17:45:01.605Z,68.20
2022-08-12T17:47:35.586Z,68.20
2022-08-12T17:50:04.510Z,68.20
2022-08-12T17:52:33.259Z,68.30
2022-08-12T17:55:00.063Z,68.60
2022-08-12T17:57:26.588Z,68.00
2022-08-12T17:59:53.101Z,68.20
2022-08-12T18:02:25.476Z,68.20
2022-08-12T18:05:05.845Z,68.50
2022-08-12T18:07:36.811Z,68.20
2022-08-12T18:10:05.829Z,68.30
2022-08-12T18:12:42.724Z,68.30
2022-08-12T18:15:27.014Z,68.40
2022-08-12T18:18:01.754Z,68.40
2022-08-12T18:20:29.043Z,68.30
2022-08-12T18:22:56.280Z,68.60
2022-08-12T18:26:13.237Z,68.60
2022-08-12T18:28:16.680Z,68.40
2022-08-12T18:30:53.034Z,68.70
2022-08-12T18:33:20.976Z,68.60
2022-08-12T18:35:53.303Z,70.80
2022-08-12T18:38:21.861Z,68.60
2022-08-12T18:40:48.604Z,68.50
2022-08-12T18:43:15.491Z,69.00
2022-08-12T18:45:47.176Z,68.70
2022-08-12T18:48:23.804Z,68.40
2022-08-12T18:50:50.307Z,68.50
2022-08-12T18:53:30.925Z,68.50
2022-08-12T18:56:03.283Z,68.50
2022-08-12T18:58:30.392Z,68.50
2022-08-12T19:00:57.300Z,70.10
2022-08-12T19:03:38.926Z,68.70
2022-08-12T19:06:06.512Z,69.10
2022-08-12T19:08:33.010Z,68.70
2022-08-12T19:10:59.461Z,68.60
2022-08-12T19:13:27.088Z,68.40
2022-08-12T19:16:01.660Z,68.40
2022-08-12T19:18:29.728Z,68.80
2022-08-12T19:20:57.181Z,68.50
2022-08-12T19:23:24.924Z,69.50
2022-08-12T19:26:02.676Z,68.40
2022-08-12T19:28:34.665Z,68.60
2022-08-12T19:31:02.705Z,68.60
2022-08-12T19:33:29.361Z,68.30
2022-08-12T19:36:24.090Z,69.60
2022-08-12T19:38:46.994Z,69.50
2022-08-12T19:41:23.409Z,68.60
2022-08-12T19:44:18.462Z,68.60
2022-08-12T19:46:52.902Z,68.60
2022-08-12T19:49:19.751Z,68.60
2022-08-12T19:51:48.854Z,68.50
2022-08-12T19:54:15.291Z,68.60
2022-08-12T19:56:41.842Z,68.60
2022-08-12T19:59:10.298Z,68.70
2022-08-12T20:02:01.462Z,68.80
2022-08-12T20:04:24.108Z,68.60
2022-08-12T20:06:51.575Z,68.70
2022-08-12T20:09:20.005Z,68.70
2022-08-12T20:12:13.148Z,68.60
2022-08-12T20:14:34.759Z,68.60
2022-08-12T20:17:02.666Z,68.60
2022-08-12T20:20:05.463Z,68.70
2022-08-12T20:22:16.774Z,69.00
2022-08-12T20:24:51.472Z,68.70
2022-08-12T20:27:29.783Z,69.30
2022-08-12T20:30:08.439Z,69.00
2022-08-12T20:32:37.576Z,68.80
2022-08-12T20:35:19.706Z,68.80
2022-08-12T20:38:06.263Z,68.80
2022-08-12T20:40:34.597Z,68.70
2022-08-12T20:43:04.579Z,68.70
2022-08-12T20:45:50.637Z,69.00
2022-08-12T20:48:19.764Z,68.70
2022-08-12T20:50:53.516Z,68.80
2022-08-12T20:53:28.872Z,68.70
2022-08-12T20:56:07.134Z,68.80
2022-08-12T20:58:33.575Z,68.80
2022-08-12T21:01:00.043Z,68.80
2022-08-12T21:03:26.671Z,68.80
2022-08-12T21:06:12.972Z,68.80
2022-08-12T21:08:40.379Z,69.00
2022-08-12T21:11:06.822Z,68.80
2022-08-12T21:13:39.423Z,69.10
2022-08-12T21:16:10.061Z,69.00
2022-08-12T21:18:36.756Z,69.40
2022-08-12T21:21:04.682Z,68.90
2022-08-12T21:23:38.653Z,68.80
2022-08-12T21:26:05.461Z,68.80
2022-08-12T21:28:32.137Z,68.90
2022-08-12T21:32:35.065Z,68.80
2022-08-12T21:34:07.960Z,69.10
2022-08-12T21:36:34.774Z,68.90
2022-08-12T21:39:01.919Z,68.90
2022-08-12T21:41:45.808Z,69.00
2022-08-12T21:44:23.983Z,69.20
2022-08-12T21:47:03.277Z,68.90
2022-08-12T21:49:54.065Z,68.80
2022-08-12T21:52:17.287Z,68.90
2022-08-12T21:54:43.731Z,68.90
2022-08-12T21:57:10.157Z,69.10
2022-08-12T21:59:39.416Z,68.90
2022-08-12T22:02:05.871Z,69.00
2022-08-12T22:04:32.356Z,68.90
2022-08-12T22:06:59.435Z,69.00
2022-08-12T22:09:25.968Z,69.00
2022-08-12T22:11:58.713Z,69.00
2022-08-12T22:14:26.298Z,68.90
2022-08-12T22:16:53.128Z,69.00
2022-08-12T22:19:19.841Z,69.80
2022-08-12T22:21:52.302Z,69.10
2022-08-12T22:24:26.845Z,69.70
2022-08-12T22:26:56.344Z,69.00
2022-08-12T22:29:23.565Z,69.00
2022-08-12T22:31:49.999Z,69.00
2022-08-12T22:34:18.124Z,70.00
2022-08-12T22:36:45.162Z,69.10
2022-08-12T22:39:12.129Z,69.20
2022-08-12T22:41:42.729Z,69.10
2022-08-12T22:44:09.229Z,70.10
2022-08-12T22:46:36.790Z,69.20
2022-08-12T22:49:03.673Z,69.20
2022-08-12T22:51:59.726Z,69.20
2022-08-12T22:54:36.156Z,69.30
2022-08-12T22:57:03.901Z,69.10
2022-08-12T22:59:51.426Z,69.10
2022-08-12T23:02:16.805Z,69.20
2022-08-12T23:04:43.263Z,69.10
2022-08-12T23:07:09.699Z,69.20
2022-08-12T23:09:48.404Z,69.10
2022-08-12T23:12:22.579Z,69.10
2022-08-12T23:14:51.782Z,69.40
2022-08-12T23:17:35.286Z,69.20
2022-08-12T23:20:04.668Z,69.30
2022-08-12T23:22:36.507Z,69.30
2022-08-12T23:25:03.710Z,69.10
2022-08-12T23:27:44.407Z,69.20
2022-08-12T23:30:18.641Z,69.60
2022-08-12T23:32:46.377Z,69.30
2022-08-12T23:35:22.710Z,69.40
2022-08-12T23:37:53.975Z,69.50
2022-08-12T23:40:22.520Z,69.30
2022-08-12T23:42:51.015Z,69.20
2022-08-12T23:45:20.256Z,69.30
2022-08-12T23:47:56.954Z,69.20
2022-08-12T23:50:24.031Z,69.30
2022-08-12T23:53:00.063Z,69.20
2022-08-12T23:55:29.122Z,69.30
2022-08-12T23:58:22.449Z,69.30
